Time;durP1;ratioP1;P1;durP2;ratioP2;P2;SDS_P1;SDS_P2;PMS_P1;PMS_P2;Temp;Humidity;BMP_temperature;BMP_pressure;BME280_temperature;BME280_humidity;BME280_pressure;Samples;Min_cycle;Max_cycle;Signal;HPM_P1;HPM_P2
2023/05/04 00:02:38;;;;;;;2.50;2.30;;;;;;;12.91;55.47;99676.38;7374934;39;20250;31
2023/05/04 00:08:14;;;;;;;4.93;2.70;;;;;;;12.88;54.76;99663.19;7408389;39;21063;31
2023/05/04 00:13:49;;;;;;;4.63;2.50;;;;;;;12.91;54.76;99660.97;7401860;39;21138;31
2023/05/04 00:24:27;;;;;;;3.90;2.40;;;;;;;12.95;54.44;99656.06;7424009;39;20262;31
2023/05/04 00:29:47;;;;;;;5.50;2.40;;;;;;;13.03;54.35;99648.78;7465948;38;20338;31
2023/05/04 00:35:06;;;;;;;4.73;2.40;;;;;;;12.96;54.44;99644.22;7422458;39;21213;31
2023/05/04 00:40:42;;;;;;;4.10;2.50;;;;;;;12.76;54.60;99642.91;7463178;39;20257;31
2023/05/04 00:46:14;;;;;;;7.25;2.50;;;;;;;12.74;54.82;99643.06;7438668;39;20418;31
2023/05/04 00:51:46;;;;;;;3.57;2.47;;;;;;;12.68;55.03;99635.63;7444775;39;20238;31
2023/05/04 00:57:23;;;;;;;5.80;2.73;;;;;;;12.54;55.98;99628.19;7462635;39;20372;31
2023/05/04 01:02:56;;;;;;;7.40;2.40;;;;;;;12.36;55.96;99625.66;7398354;39;20247;31
2023/05/04 01:08:27;;;;;;;3.80;2.50;;;;;;;12.44;56.05;99620.25;7421584;39;20228;31
2023/05/04 01:14:00;;;;;;;4.40;2.73;;;;;;;12.55;55.81;99617.19;7375265;39;21661;31
2023/05/04 01:24:37;;;;;;;4.70;2.40;;;;;;;12.51;55.28;99625.81;7388786;39;20503;31
2023/05/04 01:35:13;;;;;;;7.77;2.63;;;;;;;12.37;55.82;99621.94;7439791;39;20372;31
2023/05/04 01:45:50;;;;;;;4.20;2.50;;;;;;;12.41;55.63;99628.69;7419964;39;20263;31
2023/05/04 01:51:22;;;;;;;5.77;2.40;;;;;;;12.32;56.22;99632.41;7422436;39;20345;31
2023/05/04 01:56:54;;;;;;;6.77;2.60;;;;;;;12.12;56.29;99631.84;7348737;39;21179;31
2023/05/04 02:07:31;;;;;;;3.80;2.50;;;;;;;12.06;56.15;99610.91;7431281;39;20459;31
2023/05/04 02:17:54;;;;;;;3.60;2.50;;;;;;;12.20;55.87;99623.75;7445357;38;20396;31
2023/05/04 02:23:30;;;;;;;3.90;2.80;;;;;;;12.06;55.92;99619.03;7489569;38;20237;31
2023/05/04 02:28:50;;;;;;;3.75;2.60;;;;;;;12.01;56.47;99620.53;7445300;39;20284;31
2023/05/04 02:34:25;;;;;;;3.60;2.47;;;;;;;12.03;55.75;99615.78;7441048;39;20331;31
2023/05/04 02:45:03;;;;;;;4.93;2.67;;;;;;;12.02;55.85;99608.72;7446252;39;20273;31
2023/05/04 02:50:36;;;;;;;3.75;2.42;;;;;;;11.98;56.39;99608.19;7418533;39;20278;31
2023/05/04 02:55:56;;;;;;;5.10;2.70;;;;;;;11.93;56.13;99601.59;7399629;39;20305;31
2023/05/04 03:01:29;;;;;;;3.80;2.40;;;;;;;11.89;56.33;99592.16;7399153;39;21768;31
2023/05/04 03:06:49;;;;;;;6.00;2.70;;;;;;;11.82;56.76;99591.09;7418512;39;20241;31
2023/05/04 03:12:11;;;;;;;5.40;2.50;;;;;;;11.75;56.78;99582.81;7463815;39;20241;31
2023/05/04 03:17:46;;;;;;;7.80;2.70;;;;;;;11.63;57.57;99579.53;7487637;39;20368;31
2023/05/04 03:23:18;;;;;;;2.80;2.53;;;;;;;11.60;57.25;99581.72;7465062;39;20254;31
2023/05/04 03:28:38;;;;;;;4.30;2.90;;;;;;;11.58;57.45;99579.16;7377007;39;21276;31
2023/05/04 03:39:16;;;;;;;5.40;2.83;;;;;;;11.43;57.67;99583.50;7368924;39;20270;31
2023/05/04 03:44:48;;;;;;;7.07;3.00;;;;;;;11.50;58.17;99578.28;7380246;39;20313;31
2023/05/04 03:50:08;;;;;;;5.00;3.00;;;;;;;11.51;57.83;99575.44;7371483;39;21312;31
2023/05/04 03:55:40;;;;;;;4.77;3.10;;;;;;;11.42;58.09;99571.03;7397072;39;21675;31
2023/05/04 04:00:59;;;;;;;5.37;3.33;;;;;;;11.45;57.84;99567.97;7442140;39;21736;31
2023/05/04 04:06:34;;;;;;;4.00;2.90;;;;;;;11.35;58.63;99574.53;7412171;39;20344;31
2023/05/04 04:12:08;;;;;;;4.90;3.47;;;;;;;11.26;59.59;99571.81;7460544;39;21288;31
2023/05/04 04:17:26;;;;;;;4.17;2.73;;;;;;;11.29;59.13;99578.72;7378280;39;21726;31
2023/05/04 04:22:57;;;;;;;8.00;3.50;;;;;;;11.20;59.54;99571.59;7385872;39;21257;31
2023/05/04 04:33:35;;;;;;;4.00;3.30;;;;;;;11.23;60.22;99572.09;7369422;39;20273;31
2023/05/04 04:44:11;;;;;;;5.92;3.72;;;;;;;11.19;60.24;99586.09;7218730;39;20279;31
2023/05/04 04:49:46;;;;;;;5.40;3.60;;;;;;;11.18;61.32;99579.03;7465870;38;21681;31
2023/05/04 04:55:22;;;;;;;6.93;3.77;;;;;;;11.26;60.48;99587.16;7441759;39;20258;31
2023/05/04 05:06:00;;;;;;;6.43;3.57;;;;;;;11.25;61.85;99585.44;7449994;39;20277;31
2023/05/04 05:16:23;;;;;;;5.93;4.10;;;;;;;11.28;61.69;99590.53;7421826;39;20274;31
2023/05/04 05:27:00;;;;;;;7.47;3.70;;;;;;;11.39;62.13;99578.59;7448373;39;20247;31
2023/05/04 05:37:38;;;;;;;6.23;3.80;;;;;;;11.48;62.00;99591.13;7462596;39;20355;31
2023/05/04 05:48:20;;;;;;;8.17;3.97;;;;;;;11.71;62.29;99590.37;7514789;38;20268;31
2023/05/04 05:53:37;;;;;;;6.10;4.07;;;;;;;11.93;61.59;99591.66;7438960;39;20395;31
2023/05/04 05:58:57;;;;;;;5.37;3.90;;;;;;;12.03;61.56;99588.78;7423277;39;20362;31
2023/05/04 06:04:31;;;;;;;7.47;3.97;;;;;;;12.10;61.95;99587.13;7383948;39;21625;31
2023/05/04 06:09:48;;;;;;;5.67;3.90;;;;;;;12.29;60.42;99589.47;7387349;39;20246;31
2023/05/04 06:15:09;;;;;;;5.47;4.30;;;;;;;12.46;60.90;99593.88;7390341;39;20346;31
2023/05/04 06:20:46;;;;;;;6.30;4.70;;;;;;;12.67;60.42;99581.72;7404254;39;20234;31
2023/05/04 06:26:22;;;;;;;6.75;4.60;;;;;;;12.88;60.37;99587.44;7469312;39;20258;31
2023/05/04 06:31:59;;;;;;;7.57;4.77;;;;;;;12.91;59.57;99577.09;7446497;39;20258;31
2023/05/04 06:37:30;;;;;;;6.43;5.20;;;;;;;13.06;60.47;99582.66;7398588;39;21242;31
2023/05/04 06:42:50;;;;;;;6.85;4.80;;;;;;;13.31;59.61;99581.59;7378580;39;20246;31
2023/05/04 06:48:25;;;;;;;6.65;4.65;;;;;;;13.38;59.10;99568.22;7378891;39;20321;31
2023/05/04 06:54:00;;;;;;;5.20;4.60;;;;;;;13.51;59.18;99573.91;7321982;39;21423;31
2023/05/04 06:59:34;;;;;;;6.07;4.60;;;;;;;13.53;59.87;99575.41;7360675;39;21306;31
2023/05/04 07:05:07;;;;;;;6.97;4.87;;;;;;;13.68;59.88;99571.97;7369641;39;21168;31
2023/05/04 07:10:40;;;;;;;8.03;5.13;;;;;;;13.91;59.44;99564.69;7405883;39;20407;31
2023/05/04 07:16:01;;;;;;;6.30;5.70;;;;;;;14.22;58.88;99568.22;7464261;39;20316;31
2023/05/04 07:21:36;;;;;;;7.75;5.70;;;;;;;14.49;58.75;99569.56;7462921;39;20235;31
2023/05/04 07:27:09;;;;;;;7.40;5.70;;;;;;;14.72;58.56;99558.69;7440795;39;20242;31
2023/05/04 07:32:27;;;;;;;7.23;5.70;;;;;;;15.01;58.56;99560.56;7403852;39;21286;31
2023/05/04 07:38:02;;;;;;;7.57;5.80;;;;;;;15.18;57.75;99549.34;7422922;39;20330;31
2023/05/04 07:43:35;;;;;;;11.35;6.10;;;;;;;15.40;57.72;99549.47;7421521;39;20346;31
2023/05/04 07:49:10;;;;;;;7.33;6.00;;;;;;;15.56;57.34;99541.97;7425069;39;20324;31
2023/05/04 07:54:31;;;;;;;6.90;5.83;;;;;;;15.79;57.56;99544.53;7468093;39;20265;31
2023/05/04 08:00:09;;;;;;;9.00;6.85;;;;;;;15.97;56.53;99536.78;7442841;39;20251;31
2023/05/04 08:05:28;;;;;;;9.07;5.90;;;;;;;16.15;56.08;99536.34;7379654;39;21260;31
2023/05/04 08:10:45;;;;;;;8.30;6.10;;;;;;;16.31;56.73;99519.78;7423525;39;20239;31
2023/05/04 08:16:19;;;;;;;9.73;6.23;;;;;;;16.50;55.54;99521.81;7431943;39;20238;31
2023/05/04 08:21:55;;;;;;;6.85;5.75;;;;;;;16.55;56.32;99518.50;7449815;39;21083;31
2023/05/04 08:27:28;;;;;;;7.20;6.50;;;;;;;16.68;56.33;99518.63;7478049;38;20234;31
2023/05/04 08:33:03;;;;;;;8.90;6.60;;;;;;;16.95;55.27;99527.81;7511386;38;21090;31
2023/05/04 08:38:23;;;;;;;8.20;6.97;;;;;;;17.01;55.20;99516.16;7511605;38;20229;31
2023/05/04 08:43:45;;;;;;;8.17;6.70;;;;;;;17.11;55.50;99528.34;7511401;38;20347;31
2023/05/04 08:49:16;;;;;;;8.80;6.53;;;;;;;17.19;54.35;99523.81;7442086;39;20330;31
2023/05/04 08:54:52;;;;;;;8.17;6.70;;;;;;;17.45;53.90;99529.37;7421545;39;20320;31
2023/05/04 09:00:40;;;;;;;7.13;6.43;;;;;;;17.65;53.59;99524.88;7377167;39;20271;31
2023/05/04 09:06:17;;;;;;;10.85;6.70;;;;;;;17.79;54.02;99510.25;7379317;39;21252;31
2023/05/04 09:11:49;;;;;;;8.30;6.70;;;;;;;18.09;53.91;99516.19;7406570;39;20481;31
2023/05/04 09:17:28;;;;;;;9.35;7.10;;;;;;;18.35;53.33;99499.84;7411808;39;20383;31
2023/05/04 09:23:02;;;;;;;7.73;6.40;;;;;;;18.45;52.61;99496.72;7406321;39;20243;31
2023/05/04 09:28:34;;;;;;;8.60;6.70;;;;;;;18.57;52.34;99497.78;7424663;39;20256;31
2023/05/04 09:34:10;;;;;;;7.35;5.70;;;;;;;18.84;51.70;99495.88;7476131;38;20265;31
2023/05/04 09:39:43;;;;;;;8.40;6.80;;;;;;;18.91;51.48;99500.25;7422162;39;20341;31
2023/05/04 09:45:15;;;;;;;6.50;5.80;;;;;;;19.22;52.84;99485.03;7381195;39;21778;31
2023/05/04 09:50:49;;;;;;;7.60;6.60;;;;;;;19.52;50.45;99494.47;7420634;39;21641;31
2023/05/04 09:56:26;;;;;;;8.00;6.40;;;;;;;19.65;50.67;99488.09;7424904;39;21698;31
2023/05/04 10:02:03;;;;;;;7.83;7.03;;;;;;;20.02;49.58;99481.75;7391980;39;21262;31
2023/05/04 10:07:34;;;;;;;7.55;5.85;;;;;;;20.07;49.54;99464.66;7356372;39;20248;31
2023/05/04 10:13:04;;;;;;;9.00;6.37;;;;;;;20.19;50.22;99468.37;7338074;39;21354;31
2023/05/04 10:18:37;;;;;;;6.80;5.80;;;;;;;20.31;49.83;99452.94;7386426;39;21368;31
2023/05/04 10:24:15;;;;;;;9.17;5.70;;;;;;;20.41;49.96;99456.00;7435068;39;21177;31
2023/05/04 10:29:48;;;;;;;7.35;6.10;;;;;;;20.48;48.70;99442.28;7401744;39;20250;31
2023/05/04 10:35:20;;;;;;;10.50;5.80;;;;;;;20.71;49.35;99441.62;7441390;39;20458;31
2023/05/04 10:40:56;;;;;;;6.52;5.82;;;;;;;20.84;48.66;99430.53;7489427;38;20242;31
2023/05/04 10:46:33;;;;;;;7.15;6.50;;;;;;;20.80;48.24;99418.38;7460939;39;20276;31
2023/05/04 10:52:05;;;;;;;10.10;6.35;;;;;;;21.08;47.83;99410.44;7423984;39;20259;31
2023/05/04 10:57:39;;;;;;;8.75;5.43;;;;;;;21.30;46.82;99392.47;7422232;39;21729;31
2023/05/04 11:03:17;;;;;;;7.63;6.00;;;;;;;21.49;47.05;99394.13;7402706;39;21208;31
2023/05/04 11:08:49;;;;;;;6.70;5.80;;;;;;;21.59;45.25;99391.63;7426765;39;20379;31
2023/05/04 11:14:07;;;;;;;6.17;5.40;;;;;;;21.80;46.47;99389.44;7420891;39;21704;31
2023/05/04 11:19:43;;;;;;;8.83;6.37;;;;;;;21.91;45.77;99372.16;7190604;39;20290;31
2023/05/04 11:25:20;;;;;;;7.90;6.50;;;;;;;22.16;45.42;99377.50;7386565;39;21232;31
2023/05/04 11:30:53;;;;;;;8.50;6.65;;;;;;;22.25;44.88;99365.91;7485584;39;21273;31
2023/05/04 11:36:27;;;;;;;9.17;6.30;;;;;;;22.19;45.41;99361.37;7417450;39;20299;31
2023/05/04 11:41:59;;;;;;;7.80;6.95;;;;;;;22.32;45.23;99347.41;7357348;39;21256;31
2023/05/04 11:47:34;;;;;;;7.68;6.97;;;;;;;22.31;45.04;99340.25;7385481;39;21171;31
2023/05/04 11:53:21;;;;;;;7.35;5.80;;;;;;;22.47;44.29;99346.91;7365959;39;21252;31
2023/05/04 11:58:51;;;;;;;6.85;5.80;;;;;;;22.71;44.56;99345.03;7397535;39;20350;31
2023/05/04 12:04:23;;;;;;;7.05;6.35;;;;;;;22.82;43.73;99327.66;7362716;39;21700;31
2023/05/04 12:10:01;;;;;;;8.32;6.40;;;;;;;22.99;43.75;99319.50;7376481;39;21223;31
2023/05/04 12:15:42;;;;;;;6.28;5.53;;;;;;;23.02;43.99;99313.50;7419847;39;20497;31
2023/05/04 12:21:22;;;;;;;5.15;4.65;;;;;;;23.13;42.86;99316.22;7452920;39;21716;31
2023/05/04 12:26:55;;;;;;;5.65;5.15;;;;;;;23.30;43.07;99314.34;7462991;39;20265;31
2023/05/04 12:32:14;;;;;;;7.15;5.70;;;;;;;23.42;42.72;99311.56;7461775;39;21627;31
2023/05/04 12:37:46;;;;;;;5.87;5.20;;;;;;;23.36;43.24;99301.53;7403835;39;20281;31
2023/05/04 12:43:21;;;;;;;5.40;4.60;;;;;;;23.44;43.51;99305.81;7399465;39;21642;31
2023/05/04 12:48:49;;;;;;;4.95;4.45;;;;;;;23.74;42.50;99285.16;7421618;39;21198;31
2023/05/04 12:54:22;;;;;;;7.12;4.30;;;;;;;24.01;43.26;99279.00;7379503;39;21319;31
2023/05/04 12:59:56;;;;;;;5.57;4.60;;;;;;;24.02;42.89;99267.72;7421216;39;21351;31
2023/05/04 13:05:31;;;;;;;7.28;5.30;;;;;;;24.17;41.33;99267.16;7423729;39;20234;31
2023/05/04 13:10:48;;;;;;;5.13;4.00;;;;;;;24.18;40.55;99258.62;7440656;39;20312;31
2023/05/04 13:16:19;;;;;;;4.40;4.00;;;;;;;24.26;40.20;99265.66;7396841;39;21227;31
2023/05/04 13:21:36;;;;;;;4.20;3.70;;;;;;;24.29;41.02;99256.03;7399667;39;20286;31
2023/05/04 13:26:53;;;;;;;4.15;3.75;;;;;;;24.35;40.81;99244.84;7380880;39;20603;31
2023/05/04 13:32:26;;;;;;;4.80;4.30;;;;;;;24.24;40.10;99240.25;7385266;39;20281;31
2023/05/04 13:37:58;;;;;;;4.18;3.78;;;;;;;24.29;41.03;99228.47;7383650;39;20342;31
2023/05/04 13:43:15;;;;;;;4.60;3.70;;;;;;;24.15;39.73;99226.09;7403916;39;21606;31
2023/05/04 13:48:52;;;;;;;5.50;3.90;;;;;;;24.12;39.88;99212.81;7480531;38;20278;31
2023/05/04 13:54:09;;;;;;;4.90;3.67;;;;;;;24.28;39.88;99208.34;7423182;39;20448;31
2023/05/04 13:59:44;;;;;;;4.03;3.62;;;;;;;24.34;39.36;99195.50;7418262;39;21261;31
2023/05/04 14:05:17;;;;;;;4.95;3.75;;;;;;;24.29;39.05;99184.41;7381794;39;21192;31
2023/05/04 14:10:50;;;;;;;3.60;3.30;;;;;;;24.13;39.05;99181.41;7428286;39;21727;31
2023/05/04 14:16:06;;;;;;;6.60;3.47;;;;;;;24.31;39.80;99173.97;7466433;39;20270;31
2023/05/04 14:21:40;;;;;;;5.57;3.58;;;;;;;24.33;39.74;99171.78;7478634;38;20236;31
2023/05/04 14:27:16;;;;;;;5.30;3.33;;;;;;;24.34;38.61;99162.44;7419878;39;21274;31
2023/05/04 14:32:47;;;;;;;6.25;3.35;;;;;;;24.39;38.42;99166.09;7356306;39;20354;31
2023/05/04 14:38:20;;;;;;;5.57;3.40;;;;;;;24.39;38.49;99160.56;7372399;39;21400;31
2023/05/04 14:44:07;;;;;;;4.53;3.30;;;;;;;24.25;38.52;99159.28;7334951;39;20368;31
2023/05/04 14:54:43;;;;;;;4.95;3.00;;;;;;;24.37;38.16;99142.59;7378540;39;20382;31
2023/05/04 15:00:06;;;;;;;4.65;3.25;;;;;;;24.37;37.83;99139.84;7355327;39;21257;31
2023/05/04 15:05:17;;;;;;;3.97;2.90;;;;;;;24.29;37.55;99143.06;7421181;39;20332;31
2023/05/04 15:10:51;;;;;;;4.67;2.90;;;;;;;24.26;38.26;99127.91;7464277;39;20397;31
2023/05/04 15:16:28;;;;;;;4.28;3.12;;;;;;;24.47;37.58;99117.94;7424139;39;21220;31
2023/05/04 15:21:43;;;;;;;3.40;2.90;;;;;;;24.45;38.00;99112.66;7451834;39;21628;31
2023/05/04 15:27:20;;;;;;;5.72;2.90;;;;;;;24.44;38.00;99096.41;7470146;39;20243;31
2023/05/04 15:32:40;;;;;;;3.70;2.85;;;;;;;24.62;37.84;99099.63;7444777;39;21071;31
2023/05/04 15:38:17;;;;;;;4.85;2.80;;;;;;;24.58;37.49;99103.16;7404033;39;21236;31
2023/05/04 15:43:49;;;;;;;4.10;2.83;;;;;;;24.51;37.60;99081.34;7379471;39;21683;31
2023/05/04 15:49:24;;;;;;;6.30;3.20;;;;;;;24.57;36.77;99080.28;7383839;39;21696;31
2023/05/04 15:54:56;;;;;;;4.18;3.05;;;;;;;24.51;36.48;99081.34;7380460;39;20240;31
2023/05/04 16:00:33;;;;;;;3.30;3.00;;;;;;;24.51;36.14;99081.34;7399236;39;21214;31
2023/05/04 16:05:53;;;;;;;4.95;2.80;;;;;;;24.64;36.48;99082.84;7479834;38;20241;31
2023/05/04 16:11:30;;;;;;;4.50;2.85;;;;;;;24.53;37.97;99078.28;7510570;38;20260;31
2023/05/04 16:17:01;;;;;;;4.13;3.23;;;;;;;24.34;36.50;99074.25;7398813;39;20505;31
2023/05/04 16:22:22;;;;;;;3.53;3.10;;;;;;;24.19;37.15;99064.72;7378117;39;20400;31
2023/05/04 16:27:57;;;;;;;5.20;3.12;;;;;;;24.11;37.42;99065.16;7377864;39;20318;31
2023/05/04 16:33:30;;;;;;;5.50;3.10;;;;;;;24.06;37.18;99056.81;7402414;39;21280;31
2023/05/04 16:38:51;;;;;;;3.10;2.78;;;;;;;24.06;38.36;99058.75;7417427;39;21485;31
2023/05/04 16:49:31;;;;;;;4.53;2.70;;;;;;;23.72;38.82;99056.13;7441767;39;20366;31
2023/05/04 16:55:06;;;;;;;2.75;2.40;;;;;;;23.59;38.88;99050.16;7412264;39;21490;31
2023/05/04 17:05:42;;;;;;;3.60;2.60;;;;;;;23.32;39.60;99061.03;7440190;39;20255;31
2023/05/04 17:11:19;;;;;;;3.90;3.17;;;;;;;23.26;39.75;99060.09;7422961;39;21342;31
2023/05/04 17:21:54;;;;;;;3.53;2.73;;;;;;;23.11;39.35;99061.78;7420268;39;20351;31
2023/05/04 17:32:16;;;;;;;6.13;2.73;;;;;;;22.83;40.62;99051.72;7427990;39;20404;31
2023/05/04 17:37:53;;;;;;;7.87;2.70;;;;;;;22.67;39.83;99047.84;7464297;39;20237;31
2023/05/04 17:43:13;;;;;;;6.43;2.70;;;;;;;22.68;40.74;99062.41;7380557;39;20362;31
2023/05/04 17:48:44;;;;;;;6.05;2.70;;;;;;;22.57;41.16;99068.81;7336365;39;20352;31
2023/05/04 17:54:20;;;;;;;5.50;2.80;;;;;;;22.43;40.90;99065.53;7173255;39;20241;31
2023/05/04 17:59:55;;;;;;;2.87;2.50;;;;;;;22.38;42.02;99074.50;7356598;39;20260;31
2023/05/04 18:05:31;;;;;;;3.42;2.78;;;;;;;22.13;44.03;99070.44;7347049;39;20234;31
2023/05/04 18:11:07;;;;;;;3.37;3.07;;;;;;;21.86;44.45;99078.34;7402042;39;21247;31
2023/05/04 18:16:39;;;;;;;4.28;2.70;;;;;;;21.74;44.81;99094.03;7411891;39;20262;31
2023/05/04 18:22:00;;;;;;;3.03;2.73;;;;;;;21.60;45.51;99093.44;7360046;39;21291;31
2023/05/04 18:27:46;;;;;;;4.75;2.60;;;;;;;21.42;46.87;99099.88;7362055;39;21229;31
2023/05/04 18:38:08;;;;;;;6.07;3.30;;;;;;;21.20;48.61;99111.69;7370251;39;20415;31
2023/05/04 18:48:46;;;;;;;3.27;2.97;;;;;;;20.65;50.38;99115.50;7408604;39;20270;31
2023/05/04 18:59:07;;;;;;;5.60;3.53;;;;;;;20.37;50.27;99142.63;7442783;39;20955;31
2023/05/04 19:09:49;;;;;;;6.28;3.80;;;;;;;20.14;51.35;99134.28;7402819;39;20315;31
2023/05/04 19:15:25;;;;;;;4.60;3.30;;;;;;;19.85;51.67;99141.34;7398614;39;20251;31
2023/05/04 19:20:41;;;;;;;5.65;3.50;;;;;;;19.76;52.09;99157.25;7438695;39;21232;31
2023/05/04 19:26:15;;;;;;;5.75;3.40;;;;;;;19.74;52.87;99150.34;7446416;39;21215;31
2023/05/04 19:31:50;;;;;;;5.25;3.45;;;;;;;19.67;53.05;99147.66;7401437;39;21084;31
2023/05/04 19:37:07;;;;;;;5.60;4.00;;;;;;;19.64;53.61;99156.31;7420852;39;20254;31
2023/05/04 19:42:44;;;;;;;5.75;3.30;;;;;;;19.51;53.49;99153.72;7422913;39;20318;31
2023/05/04 19:48:16;;;;;;;5.60;3.40;;;;;;;19.41;53.29;99163.44;7409173;39;21265;31
2023/05/04 19:53:48;;;;;;;4.03;3.57;;;;;;;19.26;53.83;99153.69;7438988;39;21365;31
2023/05/04 19:59:24;;;;;;;5.10;3.40;;;;;;;19.13;54.21;99155.72;7417489;39;21293;31
2023/05/04 20:09:48;;;;;;;3.23;2.93;;;;;;;18.94;54.73;99151.22;7438442;39;20266;31
2023/05/04 20:15:23;;;;;;;4.90;3.70;;;;;;;18.79;56.46;99162.47;7424275;39;21351;31
2023/05/04 20:25:48;;;;;;;4.50;3.40;;;;;;;18.54;53.35;99148.75;7515350;38;21105;31
2023/05/04 20:31:24;;;;;;;9.40;3.20;;;;;;;18.43;53.67;99146.69;7490463;38;20238;31
2023/05/04 20:36:41;;;;;;;4.70;3.10;;;;;;;18.50;52.79;99152.97;7462808;39;20266;31
2023/05/04 20:41:59;;;;;;;3.25;2.50;;;;;;;18.56;52.25;99151.28;7445070;39;21658;31
2023/05/04 20:47:32;;;;;;;3.33;2.73;;;;;;;18.60;52.98;99152.53;7438977;39;20249;31
2023/05/04 20:52:52;;;;;;;3.80;2.87;;;;;;;18.68;52.40;99152.25;7418137;39;21170;31
2023/05/04 20:58:24;;;;;;;4.27;2.93;;;;;;;18.68;53.35;99146.78;7430950;39;20242;31
2023/05/04 21:03:58;;;;;;;3.50;3.20;;;;;;;18.39;54.91;99149.00;7419214;39;21233;31
2023/05/04 21:09:30;;;;;;;4.20;3.20;;;;;;;18.21;54.45;99148.88;7416219;39;20388;31
2023/05/04 21:14:47;;;;;;;5.10;3.50;;;;;;;18.27;54.94;99139.84;7462612;39;20506;31
2023/05/04 21:20:22;;;;;;;4.97;3.20;;;;;;;18.20;54.74;99143.66;7377756;39;21580;31
2023/05/04 21:25:57;;;;;;;4.57;3.50;;;;;;;18.17;54.56;99144.91;7395257;39;21593;31
2023/05/04 21:31:15;;;;;;;5.00;3.70;;;;;;;18.24;54.44;99140.28;7409373;39;21290;31
2023/05/04 21:36:47;;;;;;;6.40;3.23;;;;;;;18.13;55.48;99135.50;7441552;39;20355;31
2023/05/04 21:42:07;;;;;;;5.17;3.50;;;;;;;18.01;55.77;99139.97;7468423;39;21102;31
2023/05/04 21:47:40;;;;;;;4.20;3.47;;;;;;;17.92;56.50;99133.91;7391736;39;21274;31
2023/05/04 21:53:16;;;;;;;4.75;3.33;;;;;;;17.86;56.36;99136.66;7420807;39;21238;31
2023/05/04 21:58:48;;;;;;;3.37;2.93;;;;;;;17.72;56.39;99138.59;7423089;39;21845;31
2023/05/04 22:04:09;;;;;;;4.03;3.23;;;;;;;17.68;56.74;99134.63;7377395;39;21286;31
2023/05/04 22:09:45;;;;;;;4.20;3.50;;;;;;;17.46;57.02;99138.63;7443963;39;20262;31
2023/05/04 22:15:03;;;;;;;4.73;3.47;;;;;;;17.35;57.01;99136.53;7365559;39;21608;31
2023/05/04 22:20:35;;;;;;;5.10;3.60;;;;;;;17.31;56.99;99138.00;7381157;39;21192;31
2023/05/04 22:26:08;;;;;;;6.70;3.40;;;;;;;17.16;57.53;99145.56;7361695;39;21290;31
2023/05/04 22:31:25;;;;;;;5.20;3.20;;;;;;;17.15;56.97;99143.88;7353499;39;21160;31
2023/05/04 22:36:42;;;;;;;3.60;3.20;;;;;;;17.23;57.38;99149.97;7378886;39;20333;31
2023/05/04 22:42:18;;;;;;;4.50;3.15;;;;;;;17.20;57.92;99146.81;7327309;39;20428;31
2023/05/04 22:47:33;;;;;;;5.05;3.20;;;;;;;17.24;57.17;99151.66;7378227;39;21723;31
2023/05/04 22:52:53;;;;;;;4.95;3.90;;;;;;;17.26;57.77;99154.13;7407683;39;20249;31
2023/05/04 22:58:29;;;;;;;5.87;3.30;;;;;;;17.19;57.75;99153.31;7474461;39;20302;31
2023/05/04 23:04:04;;;;;;;4.50;3.50;;;;;;;17.19;57.65;99159.59;7419995;39;21286;31
2023/05/04 23:14:39;;;;;;;7.20;3.60;;;;;;;17.20;59.16;99163.16;7376867;39;20289;31
2023/05/04 23:25:13;;;;;;;5.97;3.30;;;;;;;17.13;57.85;99166.72;7450804;38;20252;31
2023/05/04 23:30:46;;;;;;;4.30;3.43;;;;;;;17.17;59.20;99166.28;7417103;39;21293;31
2023/05/04 23:36:21;;;;;;;4.47;3.47;;;;;;;17.16;58.21;99170.91;7372222;39;21207;31
2023/05/04 23:41:43;;;;;;;5.20;3.10;;;;;;;17.18;58.67;99173.41;7359670;39;21230;31
2023/05/04 23:47:17;;;;;;;3.83;3.43;;;;;;;17.08;59.60;99168.38;7372656;39;21395;31
2023/05/04 23:57:57;;;;;;;5.53;3.17;;;;;;;17.08;58.22;99152.03;7488746;39;20334;31
